createdAt,value
2022-12-15T00:00:30.096Z,43.94
2022-12-15T00:05:50.588Z,44.04
2022-12-15T00:11:10.928Z,44.17
2022-12-15T00:16:32.655Z,44.46
2022-12-15T00:21:52.892Z,44.30
2022-12-15T00:27:12.994Z,44.42
2022-12-15T00:32:34.559Z,44.37
2022-12-15T00:37:55.098Z,44.48
2022-12-15T00:42:58.069Z,44.58
2022-12-15T00:48:02.219Z,44.34
2022-12-15T00:53:22.547Z,44.58
2022-12-15T00:58:42.922Z,44.35
2022-12-15T01:04:04.395Z,44.54
2022-12-15T01:09:25.462Z,44.92
2022-12-15T01:14:45.508Z,45.16
2022-12-15T01:20:06.991Z,45.01
2022-12-15T01:25:10.607Z,44.83
2022-12-15T01:30:14.278Z,45.17
2022-12-15T01:35:18.676Z,44.85
2022-12-15T01:40:39.586Z,44.78
2022-12-15T01:46:03.501Z,44.92
2022-12-15T01:51:24.718Z,44.83
2022-12-15T01:56:31.263Z,45.06
2022-12-15T02:01:38.365Z,45.16
2022-12-15T02:06:42.521Z,45.14
2022-12-15T02:11:58.025Z,45.29
2022-12-15T02:17:10.629Z,45.18
2022-12-15T02:22:21.844Z,45.08
2022-12-15T02:27:40.451Z,45.27
2022-12-15T02:32:47.850Z,45.07
2022-12-15T02:37:50.584Z,45.20
2022-12-15T02:42:54.391Z,45.05
2022-12-15T02:48:03.575Z,45.23
2022-12-15T02:53:12.445Z,45.26
2022-12-15T02:58:16.307Z,45.32
2022-12-15T03:03:20.849Z,45.46
2022-12-15T03:08:23.855Z,45.61
2022-12-15T03:13:26.776Z,45.58
2022-12-15T03:18:30.891Z,45.66
2022-12-15T03:23:34.126Z,45.95
2022-12-15T03:28:37.166Z,45.84
2022-12-15T03:33:41.418Z,45.99
2022-12-15T03:38:44.165Z,46.19
2022-12-15T03:43:49.617Z,46.07
2022-12-15T03:48:54.738Z,46.42
2022-12-15T03:53:58.836Z,46.75
2022-12-15T03:59:01.589Z,47.03
2022-12-15T04:04:06.255Z,46.94
2022-12-15T04:09:09.116Z,47.33
2022-12-15T04:14:11.917Z,47.67
2022-12-15T04:19:33.756Z,47.54
2022-12-15T04:24:54.215Z,47.76
2022-12-15T04:30:14.368Z,47.79
2022-12-15T04:35:35.835Z,47.80
2022-12-15T04:40:55.985Z,47.68
2022-12-15T04:46:16.145Z,47.84
2022-12-15T04:51:37.747Z,47.78
2022-12-15T04:56:57.852Z,48.01
2022-12-15T05:02:18.046Z,47.88
2022-12-15T05:07:39.798Z,47.97
2022-12-15T05:13:00.034Z,47.66
2022-12-15T05:18:20.884Z,47.18
2022-12-15T05:23:42.757Z,46.59
2022-12-15T05:29:03.376Z,46.22
2022-12-15T05:34:06.950Z,46.19
2022-12-15T05:39:11.093Z,45.93
2022-12-15T05:44:13.883Z,45.65
2022-12-15T05:49:17.584Z,45.68
2022-12-15T05:54:22.171Z,45.40
2022-12-15T05:59:24.954Z,45.39
2022-12-15T06:04:27.787Z,45.22
2022-12-15T06:09:32.082Z,44.98
2022-12-15T06:14:36.206Z,45.06
2022-12-15T06:19:39.014Z,44.81
2022-12-15T06:24:43.197Z,44.61
2022-12-15T06:29:46.003Z,44.88
2022-12-15T06:34:49.212Z,44.64
2022-12-15T06:39:53.327Z,44.46
2022-12-15T06:44:56.074Z,44.56
2022-12-15T06:49:58.856Z,44.38
2022-12-15T06:55:03.217Z,44.26
2022-12-15T07:00:08.808Z,44.39
2022-12-15T07:05:12.290Z,44.41
2022-12-15T07:10:16.514Z,44.25
2022-12-15T07:15:19.331Z,44.22
2022-12-15T07:20:28.483Z,44.13
2022-12-15T07:25:33.120Z,44.07
2022-12-15T07:30:38.876Z,44.24
2022-12-15T07:35:42.188Z,44.07
2022-12-15T07:40:46.694Z,44.18
2022-12-15T07:45:52.978Z,44.11
2022-12-15T07:51:07.369Z,43.88
2022-12-15T07:56:15.398Z,43.96
2022-12-15T08:01:18.655Z,23.63
2022-12-15T08:06:21.534Z,22.88
2022-12-15T08:11:26.892Z,24.35
2022-12-15T08:16:30.731Z,27.60
2022-12-15T08:21:33.843Z,28.93
2022-12-15T08:26:38.432Z,29.71
2022-12-15T08:31:41.669Z,30.29
2022-12-15T08:36:44.538Z,31.64
2022-12-15T08:41:48.676Z,32.51
2022-12-15T08:46:52.214Z,33.06
2022-12-15T08:51:54.984Z,33.83
2022-12-15T08:56:59.340Z,34.51
2022-12-15T09:02:02.365Z,34.86
2022-12-15T09:07:05.350Z,35.29
2022-12-15T09:12:11.267Z,35.44
2022-12-15T09:17:14.243Z,36.09
2022-12-15T09:22:17.118Z,37.05
2022-12-15T09:27:21.374Z,38.42
2022-12-15T09:32:24.283Z,39.10
2022-12-15T09:37:27.130Z,40.31
2022-12-15T09:42:31.762Z,40.96
2022-12-15T09:47:38.886Z,41.67
2022-12-15T09:52:47.123Z,41.91
2022-12-15T09:57:54.184Z,42.18
2022-12-15T10:03:16.994Z,42.70
2022-12-15T10:08:20.308Z,42.53
2022-12-15T10:13:28.659Z,42.91
2022-12-15T10:18:33.477Z,43.19
2022-12-15T10:23:36.734Z,43.21
2022-12-15T10:28:51.548Z,42.99
2022-12-15T10:33:57.482Z,43.09
2022-12-15T10:39:00.525Z,42.73
2022-12-15T10:44:04.945Z,42.38
2022-12-15T10:49:22.806Z,41.64
2022-12-15T10:54:25.846Z,42.18
2022-12-15T10:59:32.078Z,41.86
2022-12-15T11:04:35.126Z,42.41
2022-12-15T11:09:38.794Z,42.48
2022-12-15T11:14:45.862Z,42.36
2022-12-15T11:19:56.569Z,42.40
2022-12-15T11:25:04.499Z,42.39
2022-12-15T11:30:13.938Z,42.12
2022-12-15T11:35:18.805Z,42.13
2022-12-15T11:40:31.811Z,42.21
2022-12-15T11:45:40.722Z,42.31
2022-12-15T11:50:51.145Z,42.38
2022-12-15T11:55:57.544Z,41.80
2022-12-15T12:01:06.199Z,41.94
2022-12-15T12:06:12.011Z,42.04
2022-12-15T12:11:15.364Z,41.90
2022-12-15T12:16:27.753Z,41.42
2022-12-15T12:21:32.243Z,41.28
2022-12-15T12:26:38.977Z,41.75
2022-12-15T12:31:44.927Z,41.89
2022-12-15T12:36:48.872Z,42.08
2022-12-15T12:41:55.172Z,42.33
2022-12-15T12:47:00.249Z,42.68
2022-12-15T12:52:04.239Z,42.68
2022-12-15T12:57:30.322Z,43.04
2022-12-15T13:02:50.464Z,43.16
2022-12-15T13:07:57.216Z,43.31
2022-12-15T13:13:01.396Z,43.23
2022-12-15T13:18:08.460Z,43.13
2022-12-15T13:23:41.508Z,42.68
2022-12-15T13:28:50.640Z,42.61
2022-12-15T13:33:57.474Z,42.66
2022-12-15T13:39:01.803Z,42.81
2022-12-15T13:44:08.808Z,42.61
2022-12-15T13:49:15.161Z,42.92
2022-12-15T13:54:19.830Z,42.62
2022-12-15T13:59:32.311Z,42.81
2022-12-15T14:04:36.953Z,42.91
2022-12-15T14:09:41.891Z,43.25
2022-12-15T14:14:47.312Z,43.50
2022-12-15T14:19:53.375Z,43.95
2022-12-15T14:25:00.966Z,44.83
2022-12-15T14:30:18.318Z,45.29
2022-12-15T14:35:25.923Z,45.62
2022-12-15T14:40:29.398Z,45.74
2022-12-15T14:45:33.625Z,45.92
2022-12-15T14:50:38.037Z,45.72
2022-12-15T14:55:41.304Z,45.54
2022-12-15T15:00:49.995Z,45.85
2022-12-15T15:05:56.987Z,46.08
2022-12-15T15:11:01.187Z,45.84
2022-12-15T15:16:06.434Z,45.95
2022-12-15T15:21:16.305Z,45.74
2022-12-15T15:26:27.407Z,45.48
2022-12-15T15:31:40.307Z,45.57
2022-12-15T15:36:45.259Z,45.74
2022-12-15T15:41:48.039Z,45.75
2022-12-15T15:46:52.283Z,45.74
2022-12-15T15:51:58.226Z,46.22
2022-12-15T15:57:00.980Z,45.97
2022-12-15T16:02:04.180Z,46.53
2022-12-15T16:07:08.956Z,46.75
2022-12-15T16:12:14.828Z,47.09
2022-12-15T16:17:17.619Z,47.62
2022-12-15T16:22:22.435Z,47.51
2022-12-15T16:27:25.356Z,47.84
2022-12-15T16:32:28.135Z,47.72
2022-12-15T16:37:36.262Z,47.70
2022-12-15T16:42:42.394Z,47.76
2022-12-15T16:47:45.704Z,48.02
2022-12-15T16:52:51.176Z,48.01
2022-12-15T16:57:54.293Z,48.04
2022-12-15T17:02:57.292Z,48.12
2022-12-15T17:08:02.130Z,47.95
2022-12-15T17:13:05.755Z,47.60
2022-12-15T17:18:08.635Z,47.98
2022-12-15T17:23:16.558Z,48.40
2022-12-15T17:28:20.766Z,48.23
2022-12-15T17:33:24.317Z,48.09
2022-12-15T17:38:28.476Z,47.81
2022-12-15T17:43:35.681Z,47.37
2022-12-15T17:48:38.797Z,47.42
2022-12-15T17:53:43.233Z,47.08
2022-12-15T17:58:46.000Z,47.14
2022-12-15T18:03:48.918Z,46.63
2022-12-15T18:08:53.191Z,46.46
2022-12-15T18:13:56.410Z,46.52
2022-12-15T18:19:00.290Z,46.60
2022-12-15T18:24:04.638Z,46.23
2022-12-15T18:29:13.165Z,46.26
2022-12-15T18:34:17.952Z,46.13
2022-12-15T18:39:23.433Z,45.52
2022-12-15T18:44:27.140Z,45.56
2022-12-15T18:49:30.042Z,45.30
2022-12-15T18:54:34.303Z,45.25
2022-12-15T18:59:37.083Z,45.48
2022-12-15T19:04:39.831Z,45.56
2022-12-15T19:09:44.163Z,45.52
2022-12-15T19:14:47.492Z,45.45
2022-12-15T19:20:07.798Z,45.36
2022-12-15T19:25:12.576Z,45.16
2022-12-15T19:30:16.708Z,45.32
2022-12-15T19:35:19.503Z,45.12
2022-12-15T19:40:27.357Z,45.05
2022-12-15T19:45:31.453Z,45.12
2022-12-15T19:50:36.649Z,45.02
2022-12-15T19:55:41.140Z,45.22
2022-12-15T20:00:43.909Z,45.30
2022-12-15T20:05:46.801Z,45.02
2022-12-15T20:10:51.344Z,45.35
2022-12-15T20:15:54.291Z,45.07
2022-12-15T20:20:57.175Z,44.86
2022-12-15T20:26:01.569Z,45.17
2022-12-15T20:31:04.508Z,45.14
2022-12-15T20:36:10.219Z,45.23
2022-12-15T20:41:17.797Z,45.08
2022-12-15T20:46:21.738Z,45.08
2022-12-15T20:51:25.779Z,45.03
2022-12-15T20:56:30.248Z,45.17
2022-12-15T21:01:35.618Z,45.36
2022-12-15T21:06:38.718Z,44.96
2022-12-15T21:11:43.066Z,45.03
2022-12-15T21:16:46.003Z,45.15
2022-12-15T21:21:52.001Z,45.01
2022-12-15T21:26:56.421Z,45.06
2022-12-15T21:31:59.528Z,45.21
2022-12-15T21:37:03.504Z,45.23
2022-12-15T21:42:11.255Z,45.10
2022-12-15T21:47:25.721Z,44.54
2022-12-15T21:52:28.664Z,44.54
2022-12-15T21:57:32.827Z,44.53
2022-12-15T22:02:35.708Z,44.72
2022-12-15T22:07:38.518Z,44.80
2022-12-15T22:12:43.975Z,44.86
2022-12-15T22:17:46.819Z,44.87
2022-12-15T22:22:49.724Z,44.71
2022-12-15T22:27:54.754Z,44.88
2022-12-15T22:32:57.968Z,45.04
2022-12-15T22:38:00.852Z,45.16
2022-12-15T22:43:05.087Z,45.29
2022-12-15T22:48:07.906Z,45.05
2022-12-15T22:53:13.954Z,45.38
2022-12-15T22:58:23.669Z,45.49
2022-12-15T23:03:27.896Z,45.62
2022-12-15T23:08:31.035Z,45.50
2022-12-15T23:13:35.438Z,45.31
2022-12-15T23:18:38.367Z,45.28
2022-12-15T23:23:41.475Z,45.73
2022-12-15T23:28:45.747Z,45.79
2022-12-15T23:33:48.521Z,45.44
2022-12-15T23:38:55.141Z,45.62
2022-12-15T23:43:59.277Z,45.57
2022-12-15T23:49:02.141Z,45.82
2022-12-15T23:54:05.142Z,45.56
2022-12-15T23:59:09.246Z,45.69
